createdAt,value
2022-10-17T00:00:38.150Z,15.22
2022-10-17T00:03:07.445Z,15.22
2022-10-17T00:05:35.655Z,15.23
2022-10-17T00:08:03.524Z,15.24
2022-10-17T00:10:31.350Z,15.24
2022-10-17T00:12:59.229Z,15.22
2022-10-17T00:15:27.131Z,15.22
2022-10-17T00:17:55.197Z,15.21
2022-10-17T00:20:24.906Z,15.20
2022-10-17T00:22:53.090Z,15.18
2022-10-17T00:25:21.040Z,15.18
2022-10-17T00:27:48.923Z,15.17
2022-10-17T00:30:17.686Z,15.17
2022-10-17T00:32:45.786Z,15.16
2022-10-17T00:35:13.646Z,15.15
2022-10-17T00:37:42.905Z,15.15
2022-10-17T00:40:12.080Z,15.15
2022-10-17T00:42:40.166Z,15.15
2022-10-17T00:45:15.787Z,15.14
2022-10-17T00:47:46.952Z,15.14
2022-10-17T00:50:16.070Z,15.13
2022-10-17T00:52:47.208Z,15.14
2022-10-17T00:55:18.527Z,15.12
2022-10-17T00:57:47.280Z,15.10
2022-10-17T01:00:17.553Z,15.09
2022-10-17T01:02:46.580Z,15.04
2022-10-17T01:05:15.715Z,14.99
2022-10-17T01:07:47.075Z,14.97
2022-10-17T01:10:15.757Z,14.96
2022-10-17T01:12:58.299Z,14.93
2022-10-17T01:15:39.061Z,14.93
2022-10-17T01:18:16.759Z,14.91
2022-10-17T01:21:22.836Z,14.91
2022-10-17T01:24:23.072Z,14.92
2022-10-17T01:27:27.063Z,14.90
2022-10-17T01:30:09.460Z,14.89
2022-10-17T01:32:42.329Z,14.89
2022-10-17T01:35:14.907Z,14.87
2022-10-17T01:37:49.484Z,14.87
2022-10-17T01:40:23.030Z,14.85
2022-10-17T01:42:59.371Z,14.84
2022-10-17T01:45:32.794Z,14.82
2022-10-17T01:48:08.620Z,14.81
2022-10-17T01:50:42.687Z,14.78
2022-10-17T01:53:15.818Z,14.76
2022-10-17T01:55:46.787Z,14.73
2022-10-17T01:58:22.185Z,14.70
2022-10-17T02:00:51.616Z,14.66
2022-10-17T02:03:23.433Z,14.63
2022-10-17T02:05:51.610Z,14.63
2022-10-17T02:08:27.544Z,14.61
2022-10-17T02:10:59.484Z,14.59
2022-10-17T02:13:42.769Z,14.56
2022-10-17T02:16:24.721Z,14.53
2022-10-17T02:19:08.481Z,14.50
2022-10-17T02:21:46.009Z,14.48
2022-10-17T02:24:21.915Z,14.49
2022-10-17T02:26:56.585Z,14.47
2022-10-17T02:29:31.570Z,14.46
2022-10-17T02:32:05.322Z,14.44
2022-10-17T02:34:39.473Z,14.43
2022-10-17T02:37:09.526Z,14.42
2022-10-17T02:39:39.325Z,14.41
2022-10-17T02:42:10.551Z,14.41
2022-10-17T02:44:40.819Z,14.41
2022-10-17T02:47:18.162Z,14.38
2022-10-17T02:49:52.345Z,14.37
2022-10-17T02:52:27.689Z,14.36
2022-10-17T02:55:01.516Z,14.34
2022-10-17T02:57:35.266Z,14.32
2022-10-17T03:00:05.541Z,14.32
2022-10-17T03:02:41.216Z,14.30
2022-10-17T03:05:12.380Z,14.28
2022-10-17T03:07:40.622Z,14.28
2022-10-17T03:10:09.197Z,14.24
2022-10-17T03:12:37.143Z,14.22
2022-10-17T03:15:05.747Z,14.20
2022-10-17T03:17:33.746Z,14.17
2022-10-17T03:20:01.624Z,14.13
2022-10-17T03:22:31.149Z,14.10
2022-10-17T03:24:59.578Z,14.06
2022-10-17T03:27:28.091Z,14.01
2022-10-17T03:29:56.975Z,13.96
2022-10-17T03:32:24.853Z,13.93
2022-10-17T03:34:52.801Z,13.89
2022-10-17T03:37:20.731Z,13.86
2022-10-17T03:39:49.977Z,13.83
2022-10-17T03:42:17.895Z,13.81
2022-10-17T03:44:45.748Z,13.80
2022-10-17T03:47:14.318Z,13.80
2022-10-17T03:49:42.421Z,13.79
2022-10-17T03:52:12.960Z,13.79
2022-10-17T03:54:40.834Z,13.79
2022-10-17T03:57:10.131Z,13.78
2022-10-17T03:59:38.011Z,13.79
2022-10-17T04:02:05.857Z,13.77
2022-10-17T04:04:33.722Z,13.78
2022-10-17T04:07:01.613Z,13.79
2022-10-17T04:09:29.481Z,13.80
2022-10-17T04:11:57.432Z,13.79
2022-10-17T04:14:26.820Z,13.77
2022-10-17T04:16:54.791Z,13.77
2022-10-17T04:19:22.790Z,13.75
2022-10-17T04:21:50.623Z,13.74
2022-10-17T04:24:18.628Z,13.74
2022-10-17T04:26:46.590Z,13.72
2022-10-17T04:29:15.281Z,13.71
2022-10-17T04:31:44.566Z,13.71
2022-10-17T04:34:14.175Z,13.71
2022-10-17T04:36:42.142Z,13.73
2022-10-17T04:39:10.220Z,13.74
2022-10-17T04:41:38.201Z,13.73
2022-10-17T04:44:06.257Z,13.73
2022-10-17T04:46:34.998Z,13.73
2022-10-17T04:49:04.553Z,13.73
2022-10-17T04:51:32.427Z,13.74
2022-10-17T04:54:00.327Z,13.75
2022-10-17T04:56:28.206Z,13.76
2022-10-17T04:58:56.150Z,13.75
2022-10-17T05:01:25.020Z,13.77
2022-10-17T05:03:53.390Z,13.78
2022-10-17T05:06:24.888Z,13.79
2022-10-17T05:08:53.005Z,13.81
2022-10-17T05:11:22.999Z,13.81
2022-10-17T05:13:52.756Z,13.78
2022-10-17T05:16:21.116Z,13.80
2022-10-17T05:18:53.188Z,13.81
2022-10-17T05:21:25.044Z,13.79
2022-10-17T05:23:54.059Z,13.77
2022-10-17T05:26:22.420Z,13.73
2022-10-17T05:28:52.513Z,13.69
2022-10-17T05:31:20.579Z,13.65
2022-10-17T05:33:48.418Z,13.62
2022-10-17T05:36:16.319Z,13.61
2022-10-17T05:38:45.579Z,13.59
2022-10-17T05:41:13.435Z,13.57
2022-10-17T05:43:41.298Z,13.53
2022-10-17T05:46:09.221Z,13.52
2022-10-17T05:48:37.312Z,13.49
2022-10-17T05:51:07.923Z,13.46
2022-10-17T05:53:39.625Z,13.44
2022-10-17T05:56:11.271Z,13.44
2022-10-17T05:58:51.591Z,13.47
2022-10-17T06:01:21.187Z,13.52
2022-10-17T06:03:49.152Z,13.55
2022-10-17T06:06:19.328Z,13.53
2022-10-17T06:08:47.626Z,13.51
2022-10-17T06:11:16.993Z,13.46
2022-10-17T06:13:44.888Z,13.42
2022-10-17T06:16:12.857Z,13.37
2022-10-17T06:18:40.781Z,13.33
2022-10-17T06:21:11.414Z,13.29
2022-10-17T06:23:39.331Z,13.24
2022-10-17T06:26:08.170Z,13.20
2022-10-17T06:28:37.939Z,13.15
2022-10-17T06:31:07.605Z,13.10
2022-10-17T06:33:36.192Z,13.05
2022-10-17T06:36:05.679Z,13.00
2022-10-17T06:38:34.710Z,12.98
2022-10-17T06:41:08.589Z,12.94
2022-10-17T06:43:38.851Z,12.89
2022-10-17T06:46:10.248Z,12.87
2022-10-17T06:48:38.211Z,12.87
2022-10-17T06:51:09.804Z,12.89
2022-10-17T06:53:37.862Z,12.92
2022-10-17T06:56:07.624Z,12.94
2022-10-17T06:58:39.818Z,12.98
2022-10-17T07:01:09.934Z,13.01
2022-10-17T07:03:38.406Z,13.03
2022-10-17T07:06:06.786Z,13.04
2022-10-17T07:08:34.936Z,13.02
2022-10-17T07:11:10.714Z,13.00
2022-10-17T07:13:40.989Z,12.99
2022-10-17T07:16:12.580Z,12.98
2022-10-17T07:18:41.142Z,12.95
2022-10-17T07:21:09.675Z,12.94
2022-10-17T07:23:38.681Z,12.91
2022-10-17T07:26:08.521Z,12.93
2022-10-17T07:28:37.820Z,12.94
2022-10-17T07:31:08.962Z,12.96
2022-10-17T07:33:37.268Z,13.03
2022-10-17T07:36:06.746Z,13.11
2022-10-17T07:38:35.224Z,13.19
2022-10-17T07:41:05.218Z,13.24
2022-10-17T07:43:33.876Z,13.29
2022-10-17T07:46:02.525Z,13.35
2022-10-17T07:48:32.017Z,13.37
2022-10-17T07:51:03.568Z,13.39
2022-10-17T07:53:31.948Z,13.41
2022-10-17T07:55:59.942Z,13.44
2022-10-17T07:58:28.781Z,13.50
2022-10-17T08:00:56.786Z,13.55
2022-10-17T08:03:24.696Z,13.58
2022-10-17T08:05:57.851Z,13.61
2022-10-17T08:08:25.872Z,13.64
2022-10-17T08:10:54.143Z,13.64
2022-10-17T08:13:22.531Z,13.63
2022-10-17T08:15:50.588Z,13.63
2022-10-17T08:18:18.809Z,13.62
2022-10-17T08:20:46.659Z,13.63
2022-10-17T08:23:15.896Z,13.64
2022-10-17T08:25:43.782Z,13.67
2022-10-17T08:28:11.592Z,13.69
2022-10-17T08:30:39.475Z,13.71
2022-10-17T08:33:07.339Z,13.72
2022-10-17T08:35:35.340Z,13.75
2022-10-17T08:38:03.232Z,13.77
2022-10-17T08:40:33.754Z,13.78
2022-10-17T08:43:33.325Z,13.79
2022-10-17T08:46:06.288Z,13.81
2022-10-17T08:48:42.635Z,13.83
2022-10-17T08:51:17.602Z,13.86
2022-10-17T08:53:51.102Z,13.89
2022-10-17T08:56:25.134Z,13.95
2022-10-17T08:59:13.825Z,14.10
2022-10-17T09:01:48.727Z,14.25
2022-10-17T09:04:43.821Z,14.38
2022-10-17T09:07:16.410Z,14.43
2022-10-17T09:09:55.486Z,14.45
2022-10-17T09:12:33.287Z,14.43
2022-10-17T09:15:30.468Z,14.46
2022-10-17T09:18:03.558Z,14.51
2022-10-17T09:20:35.466Z,14.56
2022-10-17T09:23:11.788Z,14.59
2022-10-17T09:25:44.177Z,14.60
2022-10-17T09:28:20.487Z,14.63
2022-10-17T09:30:52.915Z,14.64
2022-10-17T09:33:35.072Z,14.66
2022-10-17T09:36:14.283Z,14.67
2022-10-17T09:38:44.347Z,14.70
2022-10-17T09:41:43.793Z,14.72
2022-10-17T09:44:18.322Z,14.75
2022-10-17T09:46:59.823Z,14.80
2022-10-17T09:49:33.365Z,14.87
2022-10-17T09:52:02.409Z,14.91
2022-10-17T09:54:40.941Z,15.00
2022-10-17T09:57:11.161Z,15.07
2022-10-17T09:59:43.380Z,15.11
2022-10-17T10:02:18.725Z,15.12
2022-10-17T10:05:05.600Z,15.19
2022-10-17T10:07:36.682Z,15.21
2022-10-17T10:10:07.266Z,15.27
2022-10-17T10:12:37.806Z,15.34
2022-10-17T10:15:35.934Z,15.41
2022-10-17T10:18:04.270Z,15.46
2022-10-17T10:20:37.208Z,15.55
2022-10-17T10:23:13.364Z,15.64
2022-10-17T10:25:51.584Z,15.68
2022-10-17T10:28:19.956Z,15.76
2022-10-17T10:30:52.407Z,15.77
2022-10-17T10:33:22.063Z,15.82
2022-10-17T10:35:57.679Z,15.88
2022-10-17T10:38:25.853Z,15.93
2022-10-17T10:40:56.690Z,15.96
2022-10-17T10:43:33.269Z,16.00
2022-10-17T10:46:06.612Z,16.02
2022-10-17T10:48:37.060Z,15.95
2022-10-17T10:51:09.891Z,15.89
2022-10-17T10:53:45.601Z,15.89
2022-10-17T10:56:17.842Z,15.91
2022-10-17T10:58:55.870Z,15.93
2022-10-17T11:01:31.822Z,15.96
2022-10-17T11:04:27.615Z,15.96
2022-10-17T11:07:03.397Z,15.96
2022-10-17T11:09:46.036Z,15.92
2022-10-17T11:12:20.665Z,15.90
2022-10-17T11:14:54.317Z,15.81
2022-10-17T11:17:32.666Z,15.72
2022-10-17T11:20:10.933Z,15.64
2022-10-17T11:22:43.363Z,15.61
2022-10-17T11:25:23.146Z,15.65
2022-10-17T11:27:51.149Z,15.67
2022-10-17T11:30:19.226Z,15.62
2022-10-17T11:32:54.870Z,15.57
2022-10-17T11:35:26.451Z,15.59
2022-10-17T11:38:01.550Z,15.58
2022-10-17T11:40:34.997Z,15.55
2022-10-17T11:43:06.450Z,15.52
2022-10-17T11:45:38.072Z,15.49
2022-10-17T11:48:14.928Z,15.43
2022-10-17T11:53:47.171Z,15.39
2022-10-17T11:56:19.790Z,15.43
2022-10-17T11:58:55.511Z,15.54
2022-10-17T12:01:31.625Z,15.72
2022-10-17T12:04:13.957Z,15.82
2022-10-17T12:07:01.320Z,15.85
2022-10-17T12:09:42.643Z,15.86
2022-10-17T12:12:10.698Z,15.83
2022-10-17T12:14:43.949Z,15.80
2022-10-17T12:17:29.791Z,15.79
2022-10-17T12:20:27.306Z,15.78
2022-10-17T12:22:57.532Z,15.81
2022-10-17T12:25:30.684Z,15.77
2022-10-17T12:28:18.755Z,15.70
2022-10-17T12:30:56.839Z,15.67
2022-10-17T12:33:32.964Z,15.66
2022-10-17T12:36:45.648Z,15.74
2022-10-17T12:39:50.578Z,16.03
2022-10-17T12:42:51.699Z,16.37
2022-10-17T12:45:51.476Z,16.61
2022-10-17T12:48:55.391Z,16.76
2022-10-17T12:51:40.482Z,16.98
2022-10-17T12:54:13.580Z,17.22
2022-10-17T12:56:44.079Z,17.47
2022-10-17T12:59:17.906Z,17.56
2022-10-17T13:01:49.145Z,17.62
2022-10-17T13:04:18.009Z,17.67
2022-10-17T13:06:48.318Z,17.72
2022-10-17T13:09:26.395Z,17.88
2022-10-17T13:11:55.843Z,18.00
2022-10-17T13:14:26.437Z,18.12
2022-10-17T13:16:56.803Z,18.29
2022-10-17T13:19:27.175Z,18.48
2022-10-17T13:22:00.961Z,18.67
2022-10-17T13:24:33.195Z,18.70
2022-10-17T13:27:02.098Z,18.77
2022-10-17T13:29:32.822Z,18.82
2022-10-17T13:32:03.928Z,18.81
2022-10-17T13:34:34.069Z,18.75
2022-10-17T13:37:03.989Z,18.79
2022-10-17T13:39:54.430Z,18.91
2022-10-17T13:42:26.151Z,18.89
2022-10-17T13:44:56.434Z,18.98
2022-10-17T13:47:25.818Z,19.16
2022-10-17T13:49:55.424Z,19.17
2022-10-17T13:52:27.632Z,19.22
2022-10-17T13:54:56.068Z,19.26
2022-10-17T13:57:26.021Z,19.22
2022-10-17T13:59:59.500Z,19.19
2022-10-17T14:02:29.045Z,19.23
2022-10-17T14:05:22.921Z,19.33
2022-10-17T14:10:43.486Z,19.51
2022-10-17T14:13:22.310Z,19.63
2022-10-17T14:15:53.754Z,19.65
2022-10-17T14:18:30.856Z,19.58
2022-10-17T14:23:53.900Z,19.56
2022-10-17T14:26:24.024Z,19.82
2022-10-17T14:29:04.259Z,19.88
2022-10-17T14:31:35.184Z,19.72
2022-10-17T14:34:05.604Z,19.67
2022-10-17T14:36:37.081Z,19.73
2022-10-17T14:39:17.020Z,19.82
2022-10-17T14:41:46.903Z,20.03
2022-10-17T14:44:21.837Z,20.17
2022-10-17T14:46:55.654Z,20.15
2022-10-17T14:49:29.570Z,20.19
2022-10-17T14:52:27.405Z,20.37
2022-10-17T14:54:55.513Z,20.28
2022-10-17T14:57:29.941Z,20.24
2022-10-17T14:59:58.023Z,20.05
2022-10-17T15:02:28.797Z,19.96
2022-10-17T15:04:56.888Z,19.99
2022-10-17T15:07:24.854Z,20.07
2022-10-17T15:09:54.367Z,20.12
2022-10-17T15:12:25.047Z,19.96
2022-10-17T15:14:53.759Z,19.95
2022-10-17T15:17:26.172Z,20.05
2022-10-17T15:19:56.300Z,20.02
2022-10-17T15:22:24.505Z,19.99
2022-10-17T15:24:52.527Z,20.04
2022-10-17T15:27:22.546Z,19.98
2022-10-17T15:29:51.636Z,20.04
2022-10-17T15:32:19.882Z,20.01
2022-10-17T15:34:47.741Z,19.91
2022-10-17T15:37:22.021Z,19.81
2022-10-17T15:39:53.667Z,19.84
2022-10-17T15:42:23.164Z,19.83
2022-10-17T15:44:51.114Z,19.77
2022-10-17T15:47:25.422Z,19.85
2022-10-17T15:49:53.406Z,19.88
2022-10-17T15:52:23.039Z,19.90
2022-10-17T15:54:51.234Z,19.83
2022-10-17T15:57:21.145Z,19.64
2022-10-17T15:59:50.417Z,19.45
2022-10-17T16:02:20.502Z,19.35
2022-10-17T16:04:49.798Z,19.31
2022-10-17T16:07:18.172Z,19.33
2022-10-17T16:09:48.021Z,19.31
2022-10-17T16:12:18.721Z,19.29
2022-10-17T16:14:46.737Z,19.28
2022-10-17T16:17:15.577Z,19.17
2022-10-17T16:19:43.940Z,19.03
2022-10-17T16:22:20.884Z,18.96
2022-10-17T16:24:50.151Z,18.83
2022-10-17T16:27:17.957Z,18.71
2022-10-17T16:29:45.800Z,18.56
2022-10-17T16:32:13.667Z,18.35
2022-10-17T16:34:41.569Z,18.15
2022-10-17T16:37:09.558Z,17.96
2022-10-17T16:39:37.427Z,17.81
2022-10-17T16:42:06.989Z,17.66
2022-10-17T16:44:35.370Z,17.53
2022-10-17T16:47:03.261Z,17.40
2022-10-17T16:49:31.127Z,17.24
2022-10-17T16:51:58.950Z,17.15
2022-10-17T16:54:26.902Z,17.03
2022-10-17T16:56:54.797Z,16.94
2022-10-17T16:59:24.491Z,16.82
2022-10-17T17:01:52.320Z,16.73
2022-10-17T17:04:20.248Z,16.62
2022-10-17T17:06:48.277Z,16.55
2022-10-17T17:09:16.186Z,16.45
2022-10-17T17:11:44.140Z,16.37
2022-10-17T17:14:12.806Z,16.29
2022-10-17T17:16:43.363Z,16.20
2022-10-17T17:19:14.428Z,16.10
2022-10-17T17:21:43.149Z,16.01
2022-10-17T17:24:11.021Z,15.90
2022-10-17T17:26:39.064Z,15.81
2022-10-17T17:29:06.978Z,15.71
2022-10-17T17:31:38.270Z,15.65
2022-10-17T17:34:07.667Z,15.57
2022-10-17T17:36:37.698Z,15.49
2022-10-17T17:39:13.010Z,15.46
2022-10-17T17:41:41.431Z,15.42
2022-10-17T17:44:12.483Z,15.38
2022-10-17T17:46:43.679Z,15.33
2022-10-17T17:49:12.954Z,15.28
2022-10-17T17:51:41.550Z,15.27
2022-10-17T17:54:11.544Z,15.25
2022-10-17T17:56:40.530Z,15.23
2022-10-17T17:59:08.530Z,15.22
2022-10-17T18:01:38.951Z,15.18
2022-10-17T18:04:09.074Z,15.17
2022-10-17T18:06:39.544Z,15.16
2022-10-17T18:09:08.338Z,15.16
2022-10-17T18:11:37.528Z,15.12
2022-10-17T18:14:07.910Z,15.08
2022-10-17T18:16:37.720Z,15.01
2022-10-17T18:19:07.341Z,14.93
2022-10-17T18:21:36.136Z,14.87
2022-10-17T18:24:06.371Z,14.78
2022-10-17T18:26:34.954Z,14.71
2022-10-17T18:29:03.173Z,14.65
2022-10-17T18:31:35.641Z,14.58
2022-10-17T18:34:05.150Z,14.53
2022-10-17T18:36:34.275Z,14.52
2022-10-17T18:39:03.123Z,14.52
2022-10-17T18:41:33.622Z,14.53
2022-10-17T18:44:02.962Z,14.52
2022-10-17T18:46:35.751Z,14.48
2022-10-17T18:49:04.612Z,14.47
2022-10-17T18:51:32.589Z,14.46
2022-10-17T18:54:00.506Z,14.46
2022-10-17T18:56:28.474Z,14.45
2022-10-17T18:59:19.952Z,14.44
2022-10-17T19:01:48.286Z,14.41
2022-10-17T19:04:16.336Z,14.36
2022-10-17T19:06:44.502Z,14.30
2022-10-17T19:09:13.902Z,14.23
2022-10-17T19:11:42.901Z,14.15
2022-10-17T19:14:13.942Z,14.07
2022-10-17T19:16:44.772Z,14.00
2022-10-17T19:19:15.095Z,13.94
2022-10-17T19:21:43.588Z,13.88
2022-10-17T19:24:14.915Z,13.81
2022-10-17T19:26:44.346Z,13.74
2022-10-17T19:29:14.568Z,13.69
2022-10-17T19:31:44.588Z,13.63
2022-10-17T19:34:13.218Z,13.59
2022-10-17T19:36:41.776Z,13.55
2022-10-17T19:39:12.426Z,13.52
2022-10-17T19:41:41.514Z,13.49
2022-10-17T19:44:09.713Z,13.46
2022-10-17T19:46:37.909Z,13.44
2022-10-17T19:49:07.950Z,13.42
2022-10-17T19:51:36.063Z,13.36
2022-10-17T19:54:04.337Z,13.33
2022-10-17T19:56:36.752Z,13.29
2022-10-17T19:59:05.259Z,13.25
2022-10-17T20:01:35.846Z,13.22
2022-10-17T20:04:03.747Z,13.19
2022-10-17T20:06:33.587Z,13.17
2022-10-17T20:09:01.590Z,13.15
2022-10-17T20:11:30.447Z,13.13
2022-10-17T20:13:58.674Z,13.08
2022-10-17T20:16:29.245Z,13.03
2022-10-17T20:18:58.952Z,12.97
2022-10-17T20:21:31.598Z,12.94
2022-10-17T20:24:02.027Z,12.88
2022-10-17T20:26:38.279Z,12.84
2022-10-17T20:29:14.211Z,12.81
2022-10-17T20:31:43.728Z,12.78
2022-10-17T20:34:14.670Z,12.74
2022-10-17T20:36:42.580Z,12.70
2022-10-17T20:39:13.215Z,12.65
2022-10-17T20:41:41.432Z,12.61
2022-10-17T20:44:09.483Z,12.58
2022-10-17T20:46:48.433Z,12.54
2022-10-17T20:49:25.822Z,12.52
2022-10-17T20:51:53.719Z,12.50
2022-10-17T20:54:23.007Z,12.47
2022-10-17T20:56:51.240Z,12.45
2022-10-17T20:59:19.415Z,12.42
2022-10-17T21:01:47.743Z,12.42
2022-10-17T21:04:44.093Z,12.41
2022-10-17T21:07:03.844Z,12.40
2022-10-17T21:09:33.181Z,12.39
2022-10-17T21:14:29.230Z,12.34
2022-10-17T21:16:59.921Z,12.31
2022-10-17T21:19:30.211Z,12.28
2022-10-17T21:21:58.109Z,12.24
2022-10-17T21:24:26.016Z,12.22
2022-10-17T21:26:57.538Z,12.18
2022-10-17T21:29:25.710Z,12.14
2022-10-17T21:31:53.772Z,12.10
2022-10-17T21:34:24.542Z,12.07
2022-10-17T21:36:53.282Z,12.04
2022-10-17T21:39:21.908Z,12.02
2022-10-17T21:41:49.831Z,11.99
2022-10-17T21:44:21.779Z,11.95
2022-10-17T21:46:50.173Z,11.92
2022-10-17T21:49:20.611Z,11.89
2022-10-17T21:51:49.324Z,11.88
2022-10-17T21:54:18.552Z,11.86
2022-10-17T21:56:46.718Z,11.83
2022-10-17T21:59:14.829Z,11.82
2022-10-17T22:01:46.282Z,11.81
2022-10-17T22:04:16.382Z,11.79
2022-10-17T22:06:46.672Z,11.76
2022-10-17T22:09:16.391Z,11.74
2022-10-17T22:11:46.604Z,11.72
2022-10-17T22:14:16.835Z,11.70
2022-10-17T22:16:46.941Z,11.68
2022-10-17T22:19:18.468Z,11.65
2022-10-17T22:21:46.486Z,11.61
2022-10-17T22:24:16.974Z,11.56
2022-10-17T22:26:45.632Z,11.51
2022-10-17T22:29:13.816Z,11.48
2022-10-17T22:31:42.250Z,11.46
2022-10-17T22:34:13.165Z,11.42
2022-10-17T22:36:41.315Z,11.40
2022-10-17T22:39:09.441Z,11.38
2022-10-17T22:41:37.639Z,11.36
2022-10-17T22:44:05.934Z,11.33
2022-10-17T22:46:33.969Z,11.29
2022-10-17T22:49:01.964Z,11.27
2022-10-17T22:51:31.191Z,11.24
2022-10-17T22:53:59.073Z,11.21
2022-10-17T22:56:27.087Z,11.20
2022-10-17T22:58:54.964Z,11.18
2022-10-17T23:01:24.596Z,11.16
2022-10-17T23:03:53.650Z,11.15
2022-10-17T23:06:22.054Z,11.13
2022-10-17T23:08:52.257Z,11.13
2022-10-17T23:11:20.872Z,11.14
2022-10-17T23:13:48.848Z,11.13
2022-10-17T23:16:17.041Z,11.11
2022-10-17T23:18:44.938Z,11.10
2022-10-17T23:21:13.060Z,11.07
2022-10-17T23:23:40.904Z,11.06
2022-10-17T23:26:12.139Z,11.06
2022-10-17T23:28:40.804Z,11.03
2022-10-17T23:31:19.468Z,11.02
2022-10-17T23:33:49.002Z,11.01
2022-10-17T23:36:18.998Z,11.00
2022-10-17T23:38:47.703Z,10.97
2022-10-17T23:41:17.729Z,10.95
2022-10-17T23:43:45.613Z,10.93
2022-10-17T23:46:14.009Z,10.91
2022-10-17T23:48:42.363Z,10.88
2022-10-17T23:51:11.512Z,10.84
2022-10-17T23:53:39.639Z,10.80
2022-10-17T23:56:09.021Z,10.76
2022-10-17T23:58:38.811Z,10.72
